createdAt,value
2022-08-26T00:00:09.167Z,0
2022-08-26T00:01:07.551Z,0
2022-08-26T00:02:08.079Z,0
2022-08-26T00:03:07.975Z,0
2022-08-26T00:04:07.971Z,0
2022-08-26T00:05:07.585Z,0.109
2022-08-26T00:06:07.615Z,0
2022-08-26T00:07:07.869Z,0
2022-08-26T00:08:07.569Z,0
2022-08-26T00:09:08.026Z,0.109
2022-08-26T00:10:07.942Z,0
2022-08-26T00:11:07.554Z,0
2022-08-26T00:12:07.772Z,0
2022-08-26T00:13:07.839Z,0.219
2022-08-26T00:14:07.731Z,0.109
2022-08-26T00:15:07.644Z,0
2022-08-26T00:16:07.849Z,0
2022-08-26T00:17:08.601Z,0
2022-08-26T00:18:21.912Z,0
2022-08-26T00:19:07.654Z,0
2022-08-26T00:20:07.583Z,0
2022-08-26T00:21:07.605Z,0
2022-08-26T00:22:07.440Z,0
2022-08-26T00:23:07.813Z,0.109
2022-08-26T00:24:07.855Z,0
2022-08-26T00:25:07.717Z,0
2022-08-26T00:26:08.458Z,0.340
2022-08-26T00:27:08.223Z,0.219
2022-08-26T00:28:07.904Z,0.109
2022-08-26T00:29:07.531Z,0
2022-08-26T00:30:07.813Z,0.219
2022-08-26T00:31:07.655Z,0
2022-08-26T00:32:07.605Z,0
2022-08-26T00:33:08.107Z,0
2022-08-26T00:34:07.457Z,0
2022-08-26T00:35:08.262Z,0
2022-08-26T00:36:07.621Z,0
2022-08-26T00:37:09.085Z,0.109
2022-08-26T00:38:07.676Z,0
2022-08-26T00:39:07.840Z,0
2022-08-26T00:40:08.080Z,0
2022-08-26T00:41:07.661Z,0
2022-08-26T00:42:07.976Z,0
2022-08-26T00:43:09.429Z,0
2022-08-26T00:44:07.600Z,0
2022-08-26T00:45:10.187Z,0.109
2022-08-26T00:46:08.143Z,0
2022-08-26T00:47:07.535Z,0
2022-08-26T00:48:07.633Z,0
2022-08-26T00:49:12.180Z,0
2022-08-26T00:50:07.684Z,0
2022-08-26T00:51:07.586Z,0.109
2022-08-26T00:52:09.846Z,0
2022-08-26T00:53:07.851Z,0.370
2022-08-26T00:54:07.953Z,0.409
2022-08-26T00:55:08.107Z,0.119
2022-08-26T00:56:07.601Z,0.200
2022-08-26T00:57:15.791Z,0.109
2022-08-26T00:58:07.593Z,0
2022-08-26T00:59:07.530Z,0
2022-08-26T01:00:08.541Z,0.100
2022-08-26T01:01:07.615Z,0.119
2022-08-26T01:02:07.735Z,0.200
2022-08-26T01:03:11.639Z,0.119
2022-08-26T01:04:07.658Z,0.109
2022-08-26T01:05:07.843Z,0
2022-08-26T01:06:12.347Z,0.109
2022-08-26T01:07:08.219Z,0.109
2022-08-26T01:08:07.274Z,0.219
2022-08-26T01:09:07.413Z,0.109
2022-08-26T01:10:07.764Z,0.109
2022-08-26T01:11:08.014Z,0.109
2022-08-26T01:12:07.369Z,0.219
2022-08-26T01:13:07.893Z,0.219
2022-08-26T01:14:08.763Z,0.340
2022-08-26T01:15:08.116Z,0.340
2022-08-26T01:16:07.765Z,0.109
2022-08-26T01:17:08.285Z,0.109
2022-08-26T01:18:07.842Z,0.109
2022-08-26T01:19:07.660Z,0.219
2022-08-26T01:20:08.199Z,0.219
2022-08-26T01:21:22.493Z,0.340
2022-08-26T01:22:07.735Z,0.219
2022-08-26T01:23:08.670Z,0.680
2022-08-26T01:24:07.774Z,0.680
2022-08-26T01:25:07.736Z,0.449
2022-08-26T01:26:08.097Z,0.340
2022-08-26T01:27:07.647Z,0.449
2022-08-26T01:28:07.821Z,0.219
2022-08-26T01:29:07.745Z,0.790
2022-08-26T01:30:07.826Z,0.109
2022-08-26T01:31:08.072Z,0.219
2022-08-26T01:32:08.030Z,0.340
2022-08-26T01:33:08.232Z,0.109
2022-08-26T01:34:07.618Z,0.680
2022-08-26T01:35:07.852Z,0.680
2022-08-26T01:36:08.222Z,0.109
2022-08-26T01:37:07.723Z,0.449
2022-08-26T01:38:07.430Z,0.340
2022-08-26T01:39:07.633Z,0.449
2022-08-26T01:40:07.939Z,0.219
2022-08-26T01:41:16.107Z,0.340
2022-08-26T01:42:10.419Z,0.219
2022-08-26T01:43:07.939Z,0.449
2022-08-26T01:44:07.798Z,0.449
2022-08-26T01:45:08.419Z,0.449
2022-08-26T01:46:07.890Z,0.680
2022-08-26T01:47:07.957Z,0.219
2022-08-26T01:48:07.962Z,0.899
2022-08-26T01:49:07.867Z,0.340
2022-08-26T01:50:08.306Z,0.449
2022-08-26T01:51:07.423Z,0.449
2022-08-26T01:52:07.495Z,0.560
2022-08-26T01:53:08.455Z,0.449
2022-08-26T01:54:07.468Z,0.899
2022-08-26T01:55:08.347Z,0.109
2022-08-26T01:56:08.071Z,0.219
2022-08-26T01:57:07.942Z,0.340
2022-08-26T01:58:08.020Z,0.680
2022-08-26T01:59:07.945Z,0.560
2022-08-26T02:00:08.229Z,0.790
2022-08-26T02:01:07.747Z,0.560
2022-08-26T02:02:08.283Z,0.449
2022-08-26T02:03:08.298Z,0.449
2022-08-26T02:04:07.459Z,0.560
2022-08-26T02:05:07.852Z,0.340
2022-08-26T02:06:09.199Z,0.899
2022-08-26T02:07:07.595Z,0.219
2022-08-26T02:08:07.692Z,0.449
2022-08-26T02:09:07.942Z,0.219
2022-08-26T02:10:08.643Z,0.680
2022-08-26T02:11:08.209Z,0.219
2022-08-26T02:12:07.883Z,0.560
2022-08-26T02:14:07.883Z,0.610
2022-08-26T02:15:08.296Z,0.409
2022-08-26T02:16:07.970Z,0.119
2022-08-26T02:17:08.394Z,0.449
2022-08-26T02:18:07.743Z,0.519
2022-08-26T02:19:07.639Z,0.610
2022-08-26T02:20:07.643Z,0.219
2022-08-26T02:21:07.715Z,0.200
2022-08-26T02:22:07.479Z,0.370
2022-08-26T02:23:08.249Z,0.219
2022-08-26T02:24:07.893Z,0.340
2022-08-26T02:25:08.310Z,0.680
2022-08-26T02:26:07.928Z,0.680
2022-08-26T02:27:07.636Z,0.560
2022-08-26T02:28:08.225Z,0.449
2022-08-26T02:29:07.765Z,0.449
2022-08-26T02:30:07.911Z,0.109
2022-08-26T02:31:08.274Z,0.680
2022-08-26T02:32:07.633Z,0.109
2022-08-26T02:33:07.745Z,0.219
2022-08-26T02:34:07.867Z,0.560
2022-08-26T02:35:07.634Z,0
2022-08-26T02:36:07.588Z,0.560
2022-08-26T02:37:07.770Z,0.109
2022-08-26T02:38:10.278Z,0.340
2022-08-26T02:39:07.529Z,0.560
2022-08-26T02:40:07.570Z,0.109
2022-08-26T02:41:08.078Z,0.109
2022-08-26T02:42:07.897Z,0
2022-08-26T02:43:08.654Z,0
2022-08-26T02:44:08.129Z,0.219
2022-08-26T02:45:08.147Z,0.219
2022-08-26T02:46:08.208Z,0.219
2022-08-26T02:47:07.810Z,0
2022-08-26T02:48:08.155Z,0.109
2022-08-26T02:49:07.638Z,0.340
2022-08-26T02:50:08.412Z,0.109
2022-08-26T02:51:07.521Z,0.109
2022-08-26T02:52:07.762Z,0.340
2022-08-26T02:53:08.127Z,0.109
2022-08-26T02:54:07.499Z,0
2022-08-26T02:55:07.753Z,0.109
2022-08-26T02:56:07.603Z,0.219
2022-08-26T02:57:07.804Z,0
2022-08-26T02:58:07.601Z,0.340
2022-08-26T02:59:08.300Z,0.340
2022-08-26T03:00:08.150Z,0.219
2022-08-26T03:01:07.721Z,0.219
2022-08-26T03:02:08.193Z,0.109
2022-08-26T03:03:07.850Z,0
2022-08-26T03:04:08.338Z,0
2022-08-26T03:05:07.696Z,0
2022-08-26T03:06:07.871Z,0.109
2022-08-26T03:07:07.554Z,0.219
2022-08-26T03:08:07.493Z,0.109
2022-08-26T03:09:08.073Z,0.219
2022-08-26T03:10:08.849Z,0.109
2022-08-26T03:11:08.428Z,0.109
2022-08-26T03:12:07.559Z,0.340
2022-08-26T03:13:07.887Z,0.109
2022-08-26T03:14:07.841Z,0.109
2022-08-26T03:15:17.446Z,0
2022-08-26T03:16:08.141Z,0
2022-08-26T03:17:07.701Z,0
2022-08-26T03:18:07.665Z,0.109
2022-08-26T03:19:07.798Z,0
2022-08-26T03:20:08.478Z,0
2022-08-26T03:21:08.208Z,0
2022-08-26T03:22:07.556Z,0
2022-08-26T03:23:07.758Z,0.219
2022-08-26T03:24:07.564Z,0.109
2022-08-26T03:25:07.838Z,0.219
2022-08-26T03:26:07.725Z,0.109
2022-08-26T03:27:08.554Z,0
2022-08-26T03:28:09.665Z,0
2022-08-26T03:29:07.775Z,0.200
2022-08-26T03:30:08.134Z,0.370
2022-08-26T03:31:07.891Z,0.100
2022-08-26T03:32:07.559Z,0.449
2022-08-26T03:33:07.625Z,0
2022-08-26T03:34:07.909Z,0.409
2022-08-26T03:35:08.155Z,0.219
2022-08-26T03:36:07.648Z,0.860
2022-08-26T03:37:07.509Z,0.409
2022-08-26T03:38:07.607Z,0.610
2022-08-26T03:39:07.722Z,0
2022-08-26T03:40:07.872Z,0
2022-08-26T03:41:08.263Z,0
2022-08-26T03:42:07.751Z,13600
2022-08-26T03:43:09.588Z,0
2022-08-26T03:44:07.478Z,0
2022-08-26T03:45:08.209Z,0
2022-08-26T03:46:07.647Z,0
2022-08-26T03:47:07.682Z,0
2022-08-26T03:48:08.014Z,0
2022-08-26T03:49:07.740Z,0
2022-08-26T03:50:08.291Z,0
2022-08-26T03:51:07.939Z,0
2022-08-26T03:52:07.755Z,0
2022-08-26T03:53:12.869Z,0
2022-08-26T03:54:08.324Z,13600
2022-08-26T03:55:07.916Z,0
2022-08-26T03:56:08.010Z,0
2022-08-26T03:57:07.382Z,0
2022-08-26T03:58:07.331Z,0
2022-08-26T03:59:07.796Z,0
2022-08-26T04:00:08.077Z,0
2022-08-26T04:01:07.472Z,0
2022-08-26T04:02:08.494Z,0
2022-08-26T04:03:09.733Z,0
2022-08-26T04:04:08.401Z,0
2022-08-26T04:05:08.156Z,0
2022-08-26T04:06:07.585Z,0
2022-08-26T04:07:07.485Z,0.219
2022-08-26T04:08:08.206Z,0.170
2022-08-26T04:09:07.515Z,0
2022-08-26T04:10:08.025Z,0.620
2022-08-26T04:11:07.579Z,0.680
2022-08-26T04:12:07.939Z,0.620
2022-08-26T04:13:08.491Z,0.430
2022-08-26T04:14:07.578Z,0.449
2022-08-26T04:15:08.034Z,1.279
2022-08-26T04:16:07.478Z,2.059
2022-08-26T04:17:07.806Z,1.480
2022-08-26T04:18:07.614Z,2.480
2022-08-26T04:19:07.619Z,3.190
2022-08-26T04:20:07.816Z,4.159
2022-08-26T04:21:08.087Z,5.429
2022-08-26T04:22:07.511Z,6.730
2022-08-26T04:23:07.989Z,8.300
2022-08-26T04:24:10.277Z,10.39
2022-08-26T04:25:08.204Z,12.80
2022-08-26T04:26:08.269Z,14.40
2022-08-26T04:27:07.313Z,16.01
2022-08-26T04:28:08.211Z,17.90
2022-08-26T04:29:08.212Z,19.64
2022-08-26T04:30:07.779Z,21.47
2022-08-26T04:31:07.957Z,24.20
2022-08-26T04:32:07.644Z,27.11
2022-08-26T04:33:13.074Z,30.10
2022-08-26T04:34:07.404Z,33.75
2022-08-26T04:35:07.532Z,35.63
2022-08-26T04:36:07.539Z,38.20
2022-08-26T04:37:08.132Z,43.29
2022-08-26T04:38:08.099Z,52
2022-08-26T04:39:08.312Z,63
2022-08-26T04:40:07.709Z,71.69
2022-08-26T04:41:15.044Z,76.09
2022-08-26T04:42:07.852Z,80.59
2022-08-26T04:43:08.468Z,88.19
2022-08-26T04:44:07.912Z,97.19
2022-08-26T04:45:09.914Z,107
2022-08-26T04:46:07.642Z,120
2022-08-26T04:47:07.715Z,133
2022-08-26T04:48:08.397Z,144.3
2022-08-26T04:49:07.651Z,145.6
2022-08-26T04:50:07.771Z,150.1
2022-08-26T04:51:07.720Z,167
2022-08-26T04:53:07.677Z,207
2022-08-26T04:54:07.968Z,221
2022-08-26T04:55:08.759Z,237
2022-08-26T04:56:07.483Z,250
2022-08-26T04:57:07.870Z,268
2022-08-26T04:58:07.724Z,286
2022-08-26T04:59:07.856Z,300
2022-08-26T05:00:08.565Z,317
2022-08-26T05:01:08.093Z,336
2022-08-26T05:02:07.664Z,353
2022-08-26T05:03:07.735Z,366
2022-08-26T05:04:08.309Z,381
2022-08-26T05:05:08.008Z,394
2022-08-26T05:06:08.705Z,409
2022-08-26T05:07:08.131Z,423
2022-08-26T05:08:07.838Z,438
2022-08-26T05:09:07.684Z,460
2022-08-26T05:10:08.823Z,490
2022-08-26T05:11:08.327Z,530
2022-08-26T05:12:08.085Z,563
2022-08-26T05:13:11.066Z,568.2
2022-08-26T05:14:07.785Z,565.0
2022-08-26T05:15:08.127Z,561.0
2022-08-26T05:16:07.879Z,567
2022-08-26T05:17:07.945Z,590
2022-08-26T05:18:07.763Z,630
2022-08-26T05:19:08.585Z,670
2022-08-26T05:20:08.365Z,730
2022-08-26T05:21:08.538Z,747
2022-08-26T05:22:07.877Z,752
2022-08-26T05:23:08.200Z,781
2022-08-26T05:24:07.616Z,810
2022-08-26T05:25:07.798Z,851
2022-08-26T05:26:08.283Z,882
2022-08-26T05:27:11.667Z,902.5
2022-08-26T05:28:08.518Z,902.9
2022-08-26T05:29:07.731Z,914
2022-08-26T05:30:08.170Z,942
2022-08-26T05:31:08.534Z,990
2022-08-26T05:32:08.029Z,1060
2022-08-26T05:33:08.093Z,1100
2022-08-26T05:34:07.323Z,1140
2022-08-26T05:35:08.935Z,1190
2022-08-26T05:36:07.716Z,1218
2022-08-26T05:37:07.655Z,1237
2022-08-26T05:38:12.256Z,1260
2022-08-26T05:39:10.606Z,1320
2022-08-26T05:40:08.178Z,1310
2022-08-26T05:41:07.582Z,1270
2022-08-26T05:42:08.163Z,1277
2022-08-26T05:43:07.711Z,1265
2022-08-26T05:44:07.535Z,1294
2022-08-26T05:45:07.853Z,1280
2022-08-26T05:46:08.052Z,1270
2022-08-26T05:47:08.058Z,1290
2022-08-26T05:48:08.153Z,1300
2022-08-26T05:49:12.435Z,1360
2022-08-26T05:50:07.776Z,1420
2022-08-26T05:51:07.657Z,1453
2022-08-26T05:52:07.680Z,1431
2022-08-26T05:53:07.756Z,1450
2022-08-26T05:54:08.371Z,1490
2022-08-26T05:55:08.665Z,1540
2022-08-26T05:56:07.934Z,1600
2022-08-26T05:57:09.225Z,1690
2022-08-26T05:58:09.857Z,1770
2022-08-26T05:59:14.340Z,1820
2022-08-26T06:00:08.934Z,1860
2022-08-26T06:01:08.514Z,1910
2022-08-26T06:02:08.092Z,1945
2022-08-26T06:03:09.606Z,1980
2022-08-26T06:04:09.170Z,2013
2022-08-26T06:05:08.314Z,2013.
2022-08-26T06:06:08.453Z,1990
2022-08-26T06:07:07.738Z,1956
2022-08-26T06:08:08.517Z,1950
2022-08-26T06:09:09.449Z,2010
2022-08-26T06:10:31.014Z,2050
2022-08-26T06:11:08.765Z,2100
2022-08-26T06:12:08.119Z,2146
2022-08-26T06:13:11.564Z,2160
2022-08-26T06:14:08.572Z,2200
2022-08-26T06:15:08.457Z,2221.
2022-08-26T06:16:08.880Z,2214
2022-08-26T06:17:08.196Z,2202
2022-08-26T06:18:08.134Z,2260
2022-08-26T06:19:10.900Z,2310
2022-08-26T06:20:07.937Z,2350
2022-08-26T06:21:08.697Z,2410
2022-08-26T06:22:07.971Z,2460
2022-08-26T06:23:08.285Z,2450
2022-08-26T06:24:08.295Z,2443
2022-08-26T06:25:07.987Z,2490
2022-08-26T06:26:08.370Z,2480
2022-08-26T06:27:07.604Z,2448
2022-08-26T06:28:08.253Z,2400
2022-08-26T06:29:08.194Z,2366
2022-08-26T06:30:08.504Z,2320
2022-08-26T06:31:08.229Z,2240
2022-08-26T06:32:08.798Z,2196
2022-08-26T06:33:08.526Z,2100
2022-08-26T06:34:10.707Z,1900
2022-08-26T06:35:12.205Z,1600
2022-08-26T06:36:08.353Z,1560
2022-08-26T06:37:08.112Z,1580
2022-08-26T06:38:08.188Z,1600
2022-08-26T06:39:30.707Z,1810
2022-08-26T06:40:07.629Z,1855
2022-08-26T06:41:08.105Z,1863
2022-08-26T06:42:08.095Z,1890
2022-08-26T06:43:07.945Z,1960
2022-08-26T06:44:07.892Z,1900
2022-08-26T06:45:09.831Z,1700
2022-08-26T06:46:07.876Z,1690
2022-08-26T06:47:07.727Z,1700
2022-08-26T06:48:07.999Z,1800
2022-08-26T06:49:07.821Z,1966
2022-08-26T06:50:07.765Z,1920
2022-08-26T06:51:08.261Z,1874
2022-08-26T06:52:07.709Z,1870.
2022-08-26T06:53:08.360Z,1879
2022-08-26T06:54:08.436Z,1892.
2022-08-26T06:55:07.989Z,1907
2022-08-26T06:56:07.807Z,1950
2022-08-26T06:57:08.132Z,2010
2022-08-26T06:58:07.716Z,2060
2022-08-26T06:59:07.878Z,2050
2022-08-26T07:00:08.566Z,1960
2022-08-26T07:01:11.619Z,1890
2022-08-26T07:02:08.151Z,1800
2022-08-26T07:03:08.613Z,2000
2022-08-26T07:04:10.373Z,2180
2022-08-26T07:05:08.496Z,2208
2022-08-26T07:06:08.578Z,2150
2022-08-26T07:07:09.672Z,2080
2022-08-26T07:08:08.241Z,2100
2022-08-26T07:09:09.707Z,2200
2022-08-26T07:10:08.743Z,2310
2022-08-26T07:11:08.488Z,2360
2022-08-26T07:12:08.260Z,2380
2022-08-26T07:13:08.295Z,2450
2022-08-26T07:14:07.606Z,2450
2022-08-26T07:15:07.924Z,2460
2022-08-26T07:16:07.985Z,2510
2022-08-26T07:17:12.220Z,2570
2022-08-26T07:18:08.004Z,2660
2022-08-26T07:19:10.937Z,2640
2022-08-26T07:20:09.225Z,2580
2022-08-26T07:21:08.241Z,2500
2022-08-26T07:22:08.650Z,2300
2022-08-26T07:23:07.748Z,2200
2022-08-26T07:24:08.021Z,2146
2022-08-26T07:25:08.585Z,2190
2022-08-26T07:26:08.353Z,2290
2022-08-26T07:27:08.708Z,2310
2022-08-26T07:28:07.943Z,2300
2022-08-26T07:29:08.385Z,2460
2022-08-26T07:30:08.649Z,2300
2022-08-26T07:31:09.667Z,2200
2022-08-26T07:32:08.520Z,2100
2022-08-26T07:33:08.553Z,2080
2022-08-26T07:34:08.858Z,2100
2022-08-26T07:35:08.633Z,2260
2022-08-26T07:36:08.029Z,2000
2022-08-26T07:37:08.795Z,1800
2022-08-26T07:38:07.860Z,1790
2022-08-26T07:39:08.784Z,1720
2022-08-26T07:40:08.315Z,1686
2022-08-26T07:41:08.018Z,1720
2022-08-26T07:42:08.565Z,1764
2022-08-26T07:43:08.923Z,1756
2022-08-26T07:44:07.814Z,1790
2022-08-26T07:45:08.258Z,1900
2022-08-26T07:46:08.025Z,2030
2022-08-26T07:47:10.465Z,2000
2022-08-26T07:48:08.289Z,1995.
2022-08-26T07:49:08.540Z,1960
2022-08-26T07:50:08.718Z,1800
2022-08-26T07:51:08.024Z,1780
2022-08-26T07:52:08.486Z,1720
2022-08-26T07:53:08.425Z,1690
2022-08-26T07:54:07.877Z,1671
2022-08-26T07:55:07.803Z,1700
2022-08-26T07:56:08.569Z,1800
2022-08-26T07:57:08.354Z,1990
2022-08-26T07:58:07.740Z,2100
2022-08-26T07:59:13.584Z,2300
2022-08-26T08:00:08.656Z,2480
2022-08-26T08:01:08.000Z,2300
2022-08-26T08:02:08.436Z,2100
2022-08-26T08:03:08.068Z,2000
2022-08-26T08:04:07.651Z,1964
2022-08-26T08:05:07.738Z,2000
2022-08-26T08:06:07.780Z,2000
2022-08-26T08:07:11.596Z,2000
2022-08-26T08:08:26.909Z,2900
2022-08-26T08:09:08.257Z,3039
2022-08-26T08:10:11.374Z,3040
2022-08-26T08:11:08.320Z,2800
2022-08-26T08:12:08.347Z,2600
2022-08-26T08:13:08.017Z,2400
2022-08-26T08:14:08.773Z,2300
2022-08-26T08:15:08.701Z,2230
2022-08-26T08:16:07.918Z,2200
2022-08-26T08:17:08.781Z,2300
2022-08-26T08:18:07.701Z,2412
2022-08-26T08:19:07.980Z,2400
2022-08-26T08:20:08.166Z,2630
2022-08-26T08:21:21.289Z,2610
2022-08-26T08:22:17.277Z,2568
2022-08-26T08:23:08.225Z,2580
2022-08-26T08:24:07.693Z,2400
2022-08-26T08:25:08.323Z,2420
2022-08-26T08:26:08.281Z,2380
2022-08-26T08:27:07.771Z,2310
2022-08-26T08:28:08.164Z,2289
2022-08-26T08:29:08.305Z,2300
2022-08-26T08:30:08.480Z,2400
2022-08-26T08:31:07.806Z,2580
2022-08-26T08:32:11.588Z,2700
2022-08-26T08:33:07.994Z,3000
2022-08-26T08:34:07.692Z,3200
2022-08-26T08:35:11.596Z,3313
2022-08-26T08:36:09.269Z,3250
2022-08-26T08:37:10.659Z,3100
2022-08-26T08:38:08.017Z,3000
2022-08-26T08:39:08.549Z,2999
2022-08-26T08:40:07.608Z,2960
2022-08-26T08:41:07.761Z,2870
2022-08-26T08:42:08.056Z,2900
2022-08-26T08:43:08.188Z,3200
2022-08-26T08:44:07.758Z,3300
2022-08-26T08:45:08.360Z,3200
2022-08-26T08:46:07.929Z,3140
2022-08-26T08:47:08.417Z,3300
2022-08-26T08:48:08.101Z,3431
2022-08-26T08:49:07.743Z,3300
2022-08-26T08:50:08.400Z,3100
2022-08-26T08:51:07.952Z,3070
2022-08-26T08:52:07.626Z,3100
2022-08-26T08:53:09.039Z,3100
2022-08-26T08:54:08.027Z,2900
2022-08-26T08:55:09.648Z,2930
2022-08-26T08:56:27.311Z,3100
2022-08-26T08:57:08.166Z,3300
2022-08-26T08:58:08.398Z,3500
2022-08-26T08:59:08.513Z,3700
2022-08-26T09:00:08.573Z,3850
2022-08-26T09:01:07.545Z,3863
2022-08-26T09:02:08.380Z,3700
2022-08-26T09:03:08.064Z,3730
2022-08-26T09:04:07.557Z,3000
2022-08-26T09:05:08.020Z,4300
2022-08-26T09:06:08.338Z,4300
2022-08-26T09:07:07.502Z,3000
2022-08-26T09:08:08.017Z,3000
2022-08-26T09:09:07.718Z,2000
2022-08-26T09:10:07.869Z,2700
2022-08-26T09:11:07.646Z,2560
2022-08-26T09:12:08.108Z,2400
2022-08-26T09:13:07.802Z,2400
2022-08-26T09:14:07.646Z,2400
2022-08-26T09:15:07.982Z,2600
2022-08-26T09:16:08.355Z,3000
2022-08-26T09:17:08.537Z,3000
2022-08-26T09:18:08.014Z,3900
2022-08-26T09:19:08.275Z,3900
2022-08-26T09:20:08.043Z,3800
2022-08-26T09:21:08.349Z,3700
2022-08-26T09:22:09.590Z,3680
2022-08-26T09:23:08.255Z,3700
2022-08-26T09:24:07.750Z,3900
2022-08-26T09:25:07.647Z,4100
2022-08-26T09:26:07.625Z,4100
2022-08-26T09:27:08.424Z,3900
2022-08-26T09:28:08.191Z,3800
2022-08-26T09:29:07.577Z,3720
2022-08-26T09:30:11.452Z,3730
2022-08-26T09:31:11.198Z,3778
2022-08-26T09:32:08.303Z,3720
2022-08-26T09:33:10.933Z,3700
2022-08-26T09:34:07.985Z,3870
2022-08-26T09:35:08.135Z,3700
2022-08-26T09:36:07.634Z,3000
2022-08-26T09:37:08.394Z,3000
2022-08-26T09:38:11.690Z,2000
2022-08-26T09:39:08.302Z,2300
2022-08-26T09:40:08.025Z,2200
2022-08-26T09:41:07.860Z,2190
2022-08-26T09:42:07.664Z,2150
2022-08-26T09:43:08.186Z,2130
2022-08-26T09:44:07.875Z,2220
2022-08-26T09:45:08.639Z,2250
2022-08-26T09:46:07.627Z,2300
2022-08-26T09:47:07.831Z,2500
2022-08-26T09:48:08.707Z,2700
2022-08-26T09:49:08.102Z,2600
2022-08-26T09:50:09.437Z,2490
2022-08-26T09:51:07.856Z,2000
2022-08-26T09:52:08.002Z,3000
2022-08-26T09:53:09.477Z,3000
2022-08-26T09:54:08.273Z,3800
2022-08-26T09:55:08.446Z,3990
2022-08-26T09:56:07.814Z,3900
2022-08-26T09:57:08.149Z,4000
2022-08-26T09:58:09.202Z,4300
2022-08-26T09:59:07.734Z,4000
2022-08-26T10:00:09.386Z,3830
2022-08-26T10:01:08.160Z,3000
2022-08-26T10:02:08.052Z,3400
2022-08-26T10:03:08.315Z,3340
2022-08-26T10:04:07.903Z,3300
2022-08-26T10:05:09.208Z,3500
2022-08-26T10:06:08.400Z,3670
2022-08-26T10:07:08.194Z,3500
2022-08-26T10:08:07.639Z,3200
2022-08-26T10:09:09.860Z,3000
2022-08-26T10:10:07.888Z,3050
2022-08-26T10:11:07.905Z,3070
2022-08-26T10:12:08.459Z,2900
2022-08-26T10:13:08.339Z,2800
2022-08-26T10:14:07.730Z,2710
2022-08-26T10:15:08.489Z,2661
2022-08-26T10:16:10.694Z,2670
2022-08-26T10:17:08.185Z,2740
2022-08-26T10:18:07.891Z,2830
2022-08-26T10:19:08.321Z,2900
2022-08-26T10:20:16.803Z,3100
2022-08-26T10:21:07.727Z,3300
2022-08-26T10:22:08.142Z,3500
2022-08-26T10:23:08.158Z,3000
2022-08-26T10:24:07.650Z,4000
2022-08-26T10:25:07.659Z,4200
2022-08-26T10:26:07.890Z,4200
2022-08-26T10:27:07.981Z,3000
2022-08-26T10:28:08.329Z,3000
2022-08-26T10:29:08.435Z,2900
2022-08-26T10:30:08.687Z,2700
2022-08-26T10:31:08.078Z,2500
2022-08-26T10:32:08.524Z,2380
2022-08-26T10:33:08.165Z,2320
2022-08-26T10:34:07.807Z,2200
2022-08-26T10:35:07.614Z,2113
2022-08-26T10:36:08.516Z,2070
2022-08-26T10:37:13.906Z,2088
2022-08-26T10:38:07.995Z,2050
2022-08-26T10:39:08.360Z,2036
2022-08-26T10:40:08.542Z,2034
2022-08-26T10:41:10.400Z,2041
2022-08-26T10:42:07.794Z,2090
2022-08-26T10:43:11.330Z,2200
2022-08-26T10:44:08.257Z,2300
2022-08-26T10:45:11.834Z,2500
2022-08-26T10:46:08.444Z,2000
2022-08-26T10:47:08.245Z,3000
2022-08-26T10:48:08.520Z,3000
2022-08-26T10:49:07.801Z,4000
2022-08-26T10:50:08.182Z,5000
2022-08-26T10:51:08.690Z,4000
2022-08-26T10:52:12.193Z,4600
2022-08-26T10:53:07.868Z,4590
2022-08-26T10:54:08.441Z,4600
2022-08-26T10:55:16.491Z,4900
2022-08-26T10:56:15.733Z,4900
2022-08-26T10:57:09.783Z,4000
2022-08-26T10:58:09.207Z,3000
2022-08-26T10:59:12.265Z,3750
2022-08-26T11:00:08.633Z,3800
2022-08-26T11:01:10.474Z,3940
2022-08-26T11:02:08.367Z,4000
2022-08-26T11:03:21.722Z,4000
2022-08-26T11:04:08.522Z,5000
2022-08-26T11:05:08.211Z,5300
2022-08-26T11:06:08.472Z,5500
2022-08-26T11:07:08.327Z,5800
2022-08-26T11:08:07.867Z,5800
2022-08-26T11:09:08.146Z,5000
2022-08-26T11:10:07.865Z,5000
2022-08-26T11:11:08.566Z,4000
2022-08-26T11:12:10.274Z,4000
2022-08-26T11:13:08.389Z,3940
2022-08-26T11:14:08.200Z,3800
2022-08-26T11:15:08.835Z,3710
2022-08-26T11:16:08.730Z,3500
2022-08-26T11:17:08.687Z,3500
2022-08-26T11:18:08.361Z,3000
2022-08-26T11:19:08.206Z,4100
2022-08-26T11:20:13.443Z,4320
2022-08-26T11:21:10.344Z,4200
2022-08-26T11:22:08.146Z,4000
2022-08-26T11:23:08.699Z,3950
2022-08-26T11:24:08.425Z,3910
2022-08-26T11:25:08.365Z,3700
2022-08-26T11:26:08.234Z,3500
2022-08-26T11:27:07.819Z,3460
2022-08-26T11:28:08.609Z,3500
2022-08-26T11:29:29.860Z,3700
2022-08-26T11:30:08.059Z,3900
2022-08-26T11:31:07.963Z,4200
2022-08-26T11:32:08.308Z,4310
2022-08-26T11:33:09.023Z,4200
2022-08-26T11:34:08.744Z,4000
2022-08-26T11:35:08.402Z,3800
2022-08-26T11:36:12.191Z,3600
2022-08-26T11:37:07.995Z,3000
2022-08-26T11:38:08.350Z,2000
2022-08-26T11:39:08.332Z,2790
2022-08-26T11:40:07.769Z,2784
2022-08-26T11:41:07.723Z,2800
2022-08-26T11:42:08.232Z,2900
2022-08-26T11:43:07.914Z,2995
2022-08-26T11:44:08.362Z,3000
2022-08-26T11:45:07.862Z,2800
2022-08-26T11:46:07.911Z,2500
2022-08-26T11:47:11.378Z,2300
2022-08-26T11:48:07.984Z,2235
2022-08-26T11:49:08.127Z,2200
2022-08-26T11:50:08.462Z,2300
2022-08-26T11:51:07.998Z,2500
2022-08-26T11:52:08.179Z,2700
2022-08-26T11:53:07.847Z,2830
2022-08-26T11:54:08.426Z,2900
2022-08-26T11:55:08.348Z,3000
2022-08-26T11:56:08.101Z,3500
2022-08-26T11:57:11.848Z,3620
2022-08-26T11:58:08.415Z,3685
2022-08-26T11:59:07.917Z,3500
2022-08-26T12:00:10.655Z,3400
2022-08-26T12:01:09.866Z,3360
2022-08-26T12:02:08.018Z,3340
2022-08-26T12:03:08.730Z,3400
2022-08-26T12:04:08.075Z,3560
2022-08-26T12:05:08.460Z,3300
2022-08-26T12:06:07.558Z,3000
2022-08-26T12:07:08.618Z,2000
2022-08-26T12:08:08.685Z,2400
2022-08-26T12:09:08.780Z,2340
2022-08-26T12:10:08.069Z,2330
2022-08-26T12:11:08.611Z,2370
2022-08-26T12:12:08.386Z,2350
2022-08-26T12:13:08.345Z,2300
2022-08-26T12:14:08.497Z,2300
2022-08-26T12:15:08.612Z,2400
2022-08-26T12:16:08.784Z,2530
2022-08-26T12:17:09.850Z,2553
2022-08-26T12:18:08.906Z,2600
2022-08-26T12:19:07.903Z,2600
2022-08-26T12:20:08.377Z,2500
2022-08-26T12:21:08.350Z,2480
2022-08-26T12:22:08.335Z,2430
2022-08-26T12:23:08.122Z,2500
2022-08-26T12:24:08.154Z,2900
2022-08-26T12:25:08.346Z,2990
2022-08-26T12:26:08.065Z,2980
2022-08-26T12:27:08.159Z,2900
2022-08-26T12:28:08.462Z,2700
2022-08-26T12:29:12.736Z,2683
2022-08-26T12:30:08.586Z,2600
2022-08-26T12:31:07.838Z,3000
2022-08-26T12:32:08.507Z,3200
2022-08-26T12:33:22.259Z,3260
2022-08-26T12:34:15.883Z,3230
2022-08-26T12:35:08.051Z,3300
2022-08-26T12:36:08.138Z,3400
2022-08-26T12:37:08.378Z,3600
2022-08-26T12:38:08.042Z,3800
2022-08-26T12:39:08.409Z,3800
2022-08-26T12:40:08.096Z,3780
2022-08-26T12:41:07.874Z,3700
2022-08-26T12:42:08.556Z,3500
2022-08-26T12:43:08.132Z,3600
2022-08-26T12:44:08.141Z,3800
2022-08-26T12:45:08.139Z,3900
2022-08-26T12:46:08.205Z,4200
2022-08-26T12:47:08.019Z,4410
2022-08-26T12:48:08.538Z,4200
2022-08-26T12:49:08.450Z,4130
2022-08-26T12:50:08.129Z,4000
2022-08-26T12:51:08.338Z,3000
2022-08-26T12:52:07.658Z,3400
2022-08-26T12:53:08.033Z,3500
2022-08-26T12:54:08.449Z,3650
2022-08-26T12:55:08.207Z,3700
2022-08-26T12:56:07.790Z,4000
2022-08-26T12:57:08.576Z,4300
2022-08-26T12:58:08.314Z,4200
2022-08-26T12:59:08.287Z,4000
2022-08-26T13:00:08.365Z,4000
2022-08-26T13:01:08.464Z,0
2022-08-26T13:02:08.572Z,5000
2022-08-26T13:03:08.568Z,5000
2022-08-26T13:04:08.262Z,4000
2022-08-26T13:05:08.328Z,4600
2022-08-26T13:06:15.639Z,4000
2022-08-26T13:07:07.888Z,5000
2022-08-26T13:08:08.335Z,5839
2022-08-26T13:09:08.036Z,5000
2022-08-26T13:10:07.998Z,6000
2022-08-26T13:11:07.911Z,6540
2022-08-26T13:12:08.344Z,6000
2022-08-26T13:13:08.259Z,5000
2022-08-26T13:14:07.937Z,5600
2022-08-26T13:15:08.291Z,5620
2022-08-26T13:16:08.031Z,5630
2022-08-26T13:17:08.519Z,5500
2022-08-26T13:18:08.379Z,5500
2022-08-26T13:19:10.450Z,5600
2022-08-26T13:20:08.502Z,5000
2022-08-26T13:21:08.066Z,4000
2022-08-26T13:22:08.457Z,4400
2022-08-26T13:23:08.105Z,4000
2022-08-26T13:24:08.419Z,5400